sensor_id;sensor_type;location;lat;lon;timestamp;P1;durP1;ratioP1;P2;durP2;ratioP2
16634;SDS011;8431;52.458;9.998;2023-04-06T05:58:06;7.30;;;6.38;;
16634;SDS011;8431;52.458;9.998;2023-04-06T06:00:33;8.35;;;6.40;;
16634;SDS011;8431;52.458;9.998;2023-04-06T06:03:00;11.52;;;6.68;;
16634;SDS011;8431;52.458;9.998;2023-04-06T06:05:29;9.90;;;7.25;;
16634;SDS011;8431;52.458;9.998;2023-04-06T06:07:56;8.55;;;6.72;;
16634;SDS011;8431;52.458;9.998;2023-04-06T06:10:23;9.38;;;7.70;;
16634;SDS011;8431;52.458;9.998;2023-04-06T06:12:50;8.20;;;7.30;;
16634;SDS011;8431;52.458;9.998;2023-04-06T06:15:18;12.35;;;7.50;;
16634;SDS011;8431;52.458;9.998;2023-04-06T06:17:45;9.95;;;7.82;;
16634;SDS011;8431;52.458;9.998;2023-04-06T06:20:13;10.40;;;7.03;;
16634;SDS011;8431;52.458;9.998;2023-04-06T06:22:40;10.00;;;7.07;;
16634;SDS011;8431;52.458;9.998;2023-04-06T06:25:07;8.00;;;6.90;;
16634;SDS011;8431;52.458;9.998;2023-04-06T06:27:34;8.95;;;6.53;;
16634;SDS011;8431;52.458;9.998;2023-04-06T06:30:01;7.43;;;6.30;;
16634;SDS011;8431;52.458;9.998;2023-04-06T06:32:30;8.25;;;7.05;;
16634;SDS011;8431;52.458;9.998;2023-04-06T06:34:58;7.72;;;6.90;;
16634;SDS011;8431;52.458;9.998;2023-04-06T06:37:25;8.02;;;6.30;;
16634;SDS011;8431;52.458;9.998;2023-04-06T06:39:52;9.75;;;6.88;;
16634;SDS011;8431;52.458;9.998;2023-04-06T06:42:19;9.27;;;6.00;;
16634;SDS011;8431;52.458;9.998;2023-04-06T06:44:46;7.53;;;5.95;;
16634;SDS011;8431;52.458;9.998;2023-04-06T06:47:13;7.35;;;6.18;;
16634;SDS011;8431;52.458;9.998;2023-04-06T06:49:42;7.18;;;6.47;;
16634;SDS011;8431;52.458;9.998;2023-04-06T06:52:09;7.82;;;6.53;;
16634;SDS011;8431;52.458;9.998;2023-04-06T06:54:36;10.88;;;6.93;;
16634;SDS011;8431;52.458;9.998;2023-04-06T06:57:03;10.15;;;6.88;;
16634;SDS011;8431;52.458;9.998;2023-04-06T06:59:30;7.30;;;6.53;;
16634;SDS011;8431;52.458;9.998;2023-04-06T07:01:57;7.18;;;6.20;;
16634;SDS011;8431;52.458;9.998;2023-04-06T07:04:24;9.25;;;7.07;;
16634;SDS011;8431;52.458;9.998;2023-04-06T07:06:52;7.70;;;6.63;;
16634;SDS011;8431;52.458;9.998;2023-04-06T07:09:19;9.70;;;7.10;;
16634;SDS011;8431;52.458;9.998;2023-04-06T07:11:46;13.30;;;7.40;;
16634;SDS011;8431;52.458;9.998;2023-04-06T07:14:15;9.55;;;7.82;;
16634;SDS011;8431;52.458;9.998;2023-04-06T07:16:42;10.00;;;7.60;;
16634;SDS011;8431;52.458;9.998;2023-04-06T07:19:11;11.15;;;7.85;;
16634;SDS011;8431;52.458;9.998;2023-04-06T07:21:38;11.55;;;8.40;;
16634;SDS011;8431;52.458;9.998;2023-04-06T07:24:07;11.98;;;8.20;;
16634;SDS011;8431;52.458;9.998;2023-04-06T07:26:34;14.20;;;7.80;;
16634;SDS011;8431;52.458;9.998;2023-04-06T07:29:01;11.30;;;8.57;;
16634;SDS011;8431;52.458;9.998;2023-04-06T07:31:28;10.45;;;7.88;;
16634;SDS011;8431;52.458;9.998;2023-04-06T07:33:56;10.60;;;8.75;;
16634;SDS011;8431;52.458;9.998;2023-04-06T07:36:23;10.38;;;7.97;;
16634;SDS011;8431;52.458;9.998;2023-04-06T07:38:50;9.07;;;8.18;;
16634;SDS011;8431;52.458;9.998;2023-04-06T07:41:18;10.95;;;8.00;;
16634;SDS011;8431;52.458;9.998;2023-04-06T07:43:45;12.75;;;8.57;;
16634;SDS011;8431;52.458;9.998;2023-04-06T07:46:12;15.75;;;8.15;;
16634;SDS011;8431;52.458;9.998;2023-04-06T07:48:39;12.52;;;8.63;;
16634;SDS011;8431;52.458;9.998;2023-04-06T07:51:06;10.85;;;8.32;;
16634;SDS011;8431;52.458;9.998;2023-04-06T07:53:35;13.13;;;7.90;;
16634;SDS011;8431;52.458;9.998;2023-04-06T07:56:03;12.15;;;7.88;;
16634;SDS011;8431;52.458;9.998;2023-04-06T07:58:31;12.48;;;7.65;;
16634;SDS011;8431;52.458;9.998;2023-04-06T08:00:58;7.50;;;6.70;;
16634;SDS011;8431;52.458;9.998;2023-04-06T08:03:25;11.32;;;7.65;;
16634;SDS011;8431;52.458;9.998;2023-04-06T08:05:52;10.52;;;7.82;;
16634;SDS011;8431;52.458;9.998;2023-04-06T08:08:19;11.98;;;6.63;;
16634;SDS011;8431;52.458;9.998;2023-04-06T08:10:47;11.40;;;7.38;;
16634;SDS011;8431;52.458;9.998;2023-04-06T08:13:14;12.27;;;7.90;;
16634;SDS011;8431;52.458;9.998;2023-04-06T08:15:43;10.82;;;7.35;;
16634;SDS011;8431;52.458;9.998;2023-04-06T08:18:10;11.55;;;7.65;;
16634;SDS011;8431;52.458;9.998;2023-04-06T08:20:37;9.80;;;7.13;;
16634;SDS011;8431;52.458;9.998;2023-04-06T08:23:04;11.50;;;7.13;;
16634;SDS011;8431;52.458;9.998;2023-04-06T08:25:34;8.88;;;7.47;;
16634;SDS011;8431;52.458;9.998;2023-04-06T08:28:01;9.85;;;6.85;;
16634;SDS011;8431;52.458;9.998;2023-04-06T08:30:28;9.35;;;6.80;;
16634;SDS011;8431;52.458;9.998;2023-04-06T08:32:57;8.27;;;7.03;;
16634;SDS011;8431;52.458;9.998;2023-04-06T08:35:24;10.18;;;6.90;;
16634;SDS011;8431;52.458;9.998;2023-04-06T08:37:52;7.95;;;6.43;;
16634;SDS011;8431;52.458;9.998;2023-04-06T08:40:19;11.63;;;7.68;;
16634;SDS011;8431;52.458;9.998;2023-04-06T08:42:48;7.60;;;6.30;;
16634;SDS011;8431;52.458;9.998;2023-04-06T08:45:18;8.60;;;6.82;;
16634;SDS011;8431;52.458;9.998;2023-04-06T08:47:46;13.70;;;7.05;;
16634;SDS011;8431;52.458;9.998;2023-04-06T08:50:16;7.55;;;5.85;;
16634;SDS011;8431;52.458;9.998;2023-04-06T08:52:44;7.47;;;6.03;;
16634;SDS011;8431;52.458;9.998;2023-04-06T08:55:14;10.25;;;6.20;;
16634;SDS011;8431;52.458;9.998;2023-04-06T08:57:41;7.78;;;6.25;;
16634;SDS011;8431;52.458;9.998;2023-04-06T09:00:09;7.43;;;6.15;;
16634;SDS011;8431;52.458;9.998;2023-04-06T09:02:38;8.75;;;5.63;;
16634;SDS011;8431;52.458;9.998;2023-04-06T09:05:06;7.75;;;6.05;;
16634;SDS011;8431;52.458;9.998;2023-04-06T09:07:36;6.43;;;5.80;;
16634;SDS011;8431;52.458;9.998;2023-04-06T09:10:04;9.95;;;5.35;;
16634;SDS011;8431;52.458;9.998;2023-04-06T09:12:31;6.80;;;5.20;;
16634;SDS011;8431;52.458;9.998;2023-04-06T09:14:59;8.55;;;5.47;;
16634;SDS011;8431;52.458;9.998;2023-04-06T09:17:33;8.77;;;5.43;;
16634;SDS011;8431;52.458;9.998;2023-04-06T09:20:01;7.25;;;6.07;;
16634;SDS011;8431;52.458;9.998;2023-04-06T09:22:36;6.88;;;5.50;;
16634;SDS011;8431;52.458;9.998;2023-04-06T09:25:04;6.32;;;5.47;;
16634;SDS011;8431;52.458;9.998;2023-04-06T09:27:36;7.45;;;5.72;;
16634;SDS011;8431;52.458;9.998;2023-04-06T09:30:05;6.72;;;4.93;;
16634;SDS011;8431;52.458;9.998;2023-04-06T09:32:44;6.32;;;5.00;;
16634;SDS011;8431;52.458;9.998;2023-04-06T09:35:12;8.20;;;5.50;;
16634;SDS011;8431;52.458;9.998;2023-04-06T09:37:41;7.43;;;5.50;;
16634;SDS011;8431;52.458;9.998;2023-04-06T09:40:08;6.35;;;5.25;;
16634;SDS011;8431;52.458;9.998;2023-04-06T09:42:40;6.90;;;5.63;;
16634;SDS011;8431;52.458;9.998;2023-04-06T09:45:08;8.27;;;5.85;;
16634;SDS011;8431;52.458;9.998;2023-04-06T09:47:36;8.55;;;5.90;;
16634;SDS011;8431;52.458;9.998;2023-04-06T09:50:05;8.25;;;6.20;;
16634;SDS011;8431;52.458;9.998;2023-04-06T09:52:37;5.88;;;5.30;;
16634;SDS011;8431;52.458;9.998;2023-04-06T09:55:08;6.90;;;5.32;;
16634;SDS011;8431;52.458;9.998;2023-04-06T09:57:37;7.72;;;6.03;;
16634;SDS011;8431;52.458;9.998;2023-04-06T10:00:14;6.30;;;5.60;;
16634;SDS011;8431;52.458;9.998;2023-04-06T10:02:48;9.38;;;5.97;;
16634;SDS011;8431;52.458;9.998;2023-04-06T10:05:22;8.75;;;6.30;;
16634;SDS011;8431;52.458;9.998;2023-04-06T10:08:02;7.82;;;6.10;;
16634;SDS011;8431;52.458;9.998;2023-04-06T10:10:35;6.18;;;5.53;;
16634;SDS011;8431;52.458;9.998;2023-04-06T10:13:02;11.23;;;6.97;;
16634;SDS011;8431;52.458;9.998;2023-04-06T10:15:31;7.18;;;5.47;;
16634;SDS011;8431;52.458;9.998;2023-04-06T10:17:58;8.25;;;5.60;;
16634;SDS011;8431;52.458;9.998;2023-04-06T10:20:27;8.48;;;5.88;;
16634;SDS011;8431;52.458;9.998;2023-04-06T10:23:01;7.10;;;5.50;;
16634;SDS011;8431;52.458;9.998;2023-04-06T10:25:33;5.57;;;5.07;;
16634;SDS011;8431;52.458;9.998;2023-04-06T10:28:04;6.32;;;5.45;;
16634;SDS011;8431;52.458;9.998;2023-04-06T10:30:33;5.97;;;5.43;;
16634;SDS011;8431;52.458;9.998;2023-04-06T10:33:01;7.43;;;5.35;;
16634;SDS011;8431;52.458;9.998;2023-04-06T10:35:38;5.63;;;4.90;;
16634;SDS011;8431;52.458;9.998;2023-04-06T10:38:05;5.80;;;5.30;;
16634;SDS011;8431;52.458;9.998;2023-04-06T10:40:35;6.35;;;5.75;;
16634;SDS011;8431;52.458;9.998;2023-04-06T10:43:07;8.57;;;5.30;;
16634;SDS011;8431;52.458;9.998;2023-04-06T10:45:35;6.70;;;5.40;;
16634;SDS011;8431;52.458;9.998;2023-04-06T10:48:12;5.80;;;5.25;;
16634;SDS011;8431;52.458;9.998;2023-04-06T10:50:40;5.93;;;5.40;;
16634;SDS011;8431;52.458;9.998;2023-04-06T10:53:08;6.57;;;5.50;;
16634;SDS011;8431;52.458;9.998;2023-04-06T10:55:36;6.50;;;5.93;;
16634;SDS011;8431;52.458;9.998;2023-04-06T10:58:06;6.53;;;5.93;;
16634;SDS011;8431;52.458;9.998;2023-04-06T11:00:33;6.32;;;5.68;;
16634;SDS011;8431;52.458;9.998;2023-04-06T11:03:00;6.70;;;6.00;;
16634;SDS011;8431;52.458;9.998;2023-04-06T11:05:29;7.88;;;5.80;;
16634;SDS011;8431;52.458;9.998;2023-04-06T11:07:56;7.82;;;6.03;;
16634;SDS011;8431;52.458;9.998;2023-04-06T11:10:23;6.15;;;5.55;;
16634;SDS011;8431;52.458;9.998;2023-04-06T11:12:55;8.93;;;6.03;;
16634;SDS011;8431;52.458;9.998;2023-04-06T11:15:22;15.57;;;6.90;;
16634;SDS011;8431;52.458;9.998;2023-04-06T11:17:49;6.38;;;5.78;;
16634;SDS011;8431;52.458;9.998;2023-04-06T11:20:16;6.68;;;5.70;;
16634;SDS011;8431;52.458;9.998;2023-04-06T11:22:53;5.70;;;5.20;;
16634;SDS011;8431;52.458;9.998;2023-04-06T11:25:22;6.28;;;5.68;;
16634;SDS011;8431;52.458;9.998;2023-04-06T11:27:49;8.25;;;5.45;;
16634;SDS011;8431;52.458;9.998;2023-04-06T11:30:19;7.95;;;5.45;;
16634;SDS011;8431;52.458;9.998;2023-04-06T11:32:46;7.60;;;6.00;;
16634;SDS011;8431;52.458;9.998;2023-04-06T11:35:19;6.03;;;5.43;;
16634;SDS011;8431;52.458;9.998;2023-04-06T11:40:20;6.28;;;5.78;;
16634;SDS011;8431;52.458;9.998;2023-04-06T11:42:52;7.10;;;6.40;;
16634;SDS011;8431;52.458;9.998;2023-04-06T11:45:21;6.85;;;5.68;;
16634;SDS011;8431;52.458;9.998;2023-04-06T11:47:55;6.82;;;6.10;;
16634;SDS011;8431;52.458;9.998;2023-04-06T11:50:24;6.55;;;5.40;;
16634;SDS011;8431;52.458;9.998;2023-04-06T11:52:57;7.10;;;5.85;;
16634;SDS011;8431;52.458;9.998;2023-04-06T11:55:25;6.55;;;5.95;;
16634;SDS011;8431;52.458;9.998;2023-04-06T11:57:52;9.23;;;5.78;;
16634;SDS011;8431;52.458;9.998;2023-04-06T12:00:20;7.03;;;5.60;;
16634;SDS011;8431;52.458;9.998;2023-04-06T12:02:48;5.63;;;5.10;;
16634;SDS011;8431;52.458;9.998;2023-04-06T12:05:15;8.55;;;5.50;;
16634;SDS011;8431;52.458;9.998;2023-04-06T12:07:42;6.85;;;6.25;;
16634;SDS011;8431;52.458;9.998;2023-04-06T12:10:10;15.50;;;6.80;;
16634;SDS011;8431;52.458;9.998;2023-04-06T12:12:37;8.68;;;6.35;;
16634;SDS011;8431;52.458;9.998;2023-04-06T12:15:04;6.88;;;6.25;;
16634;SDS011;8431;52.458;9.998;2023-04-06T12:17:34;6.97;;;6.28;;
16634;SDS011;8431;52.458;9.998;2023-04-06T12:20:02;6.05;;;5.45;;
16634;SDS011;8431;52.458;9.998;2023-04-06T12:22:29;6.22;;;5.72;;
16634;SDS011;8431;52.458;9.998;2023-04-06T12:24:56;6.82;;;5.85;;
16634;SDS011;8431;52.458;9.998;2023-04-06T12:27:23;5.97;;;5.47;;
16634;SDS011;8431;52.458;9.998;2023-04-06T12:29:50;6.63;;;6.03;;
16634;SDS011;8431;52.458;9.998;2023-04-06T12:32:17;7.35;;;6.00;;
16634;SDS011;8431;52.458;9.998;2023-04-06T12:34:46;6.75;;;5.90;;
16634;SDS011;8431;52.458;9.998;2023-04-06T12:37:13;6.20;;;5.50;;
16634;SDS011;8431;52.458;9.998;2023-04-06T12:39:40;6.70;;;6.10;;
16634;SDS011;8431;52.458;9.998;2023-04-06T12:42:09;6.57;;;5.90;;
16634;SDS011;8431;52.458;9.998;2023-04-06T12:44:37;7.53;;;6.50;;
16634;SDS011;8431;52.458;9.998;2023-04-06T12:47:05;7.18;;;6.53;;
16634;SDS011;8431;52.458;9.998;2023-04-06T12:49:32;6.70;;;6.00;;
16634;SDS011;8431;52.458;9.998;2023-04-06T12:52:00;7.05;;;6.32;;
16634;SDS011;8431;52.458;9.998;2023-04-06T12:54:28;7.28;;;6.57;;
16634;SDS011;8431;52.458;9.998;2023-04-06T12:56:55;10.48;;;6.30;;
16634;SDS011;8431;52.458;9.998;2023-04-06T12:59:22;7.05;;;6.35;;
16634;SDS011;8431;52.458;9.998;2023-04-06T13:01:50;6.72;;;6.10;;
16634;SDS011;8431;52.458;9.998;2023-04-06T13:07:17;7.18;;;5.22;;
16634;SDS011;8431;52.458;9.998;2023-04-06T13:09:44;5.80;;;5.30;;
16634;SDS011;8431;52.458;9.998;2023-04-06T13:12:12;7.03;;;6.35;;
16634;SDS011;8431;52.458;9.998;2023-04-06T13:14:40;6.85;;;6.22;;
16634;SDS011;8431;52.458;9.998;2023-04-06T13:17:08;6.10;;;5.50;;
16634;SDS011;8431;52.458;9.998;2023-04-06T13:19:35;5.78;;;5.35;;
16634;SDS011;8431;52.458;9.998;2023-04-06T13:22:03;6.75;;;6.18;;
16634;SDS011;8431;52.458;9.998;2023-04-06T13:24:31;7.20;;;5.70;;
16634;SDS011;8431;52.458;9.998;2023-04-06T13:26:59;7.03;;;6.30;;
16634;SDS011;8431;52.458;9.998;2023-04-06T13:29:27;9.07;;;6.00;;
16634;SDS011;8431;52.458;9.998;2023-04-06T13:31:54;6.70;;;6.05;;
16634;SDS011;8431;52.458;9.998;2023-04-06T13:34:21;7.50;;;6.75;;
16634;SDS011;8431;52.458;9.998;2023-04-06T13:36:48;7.05;;;6.35;;
16634;SDS011;8431;52.458;9.998;2023-04-06T13:39:15;7.13;;;6.53;;
16634;SDS011;8431;52.458;9.998;2023-04-06T13:41:44;9.23;;;6.97;;
16634;SDS011;8431;52.458;9.998;2023-04-06T13:44:11;6.97;;;6.20;;
16634;SDS011;8431;52.458;9.998;2023-04-06T13:46:40;7.72;;;7.00;;
16634;SDS011;8431;52.458;9.998;2023-04-06T13:49:26;6.93;;;6.32;;
16634;SDS011;8431;52.458;9.998;2023-04-06T13:51:55;8.57;;;6.75;;
16634;SDS011;8431;52.458;9.998;2023-04-06T13:54:25;7.60;;;6.90;;
16634;SDS011;8431;52.458;9.998;2023-04-06T13:56:57;7.13;;;6.53;;
16634;SDS011;8431;52.458;9.998;2023-04-06T13:59:33;7.38;;;6.57;;
16634;SDS011;8431;52.458;9.998;2023-04-06T14:02:09;10.00;;;6.28;;
16634;SDS011;8431;52.458;9.998;2023-04-06T14:04:36;7.50;;;6.80;;
16634;SDS011;8431;52.458;9.998;2023-04-06T14:07:03;7.88;;;6.18;;
16634;SDS011;8431;52.458;9.998;2023-04-06T14:09:32;7.97;;;7.18;;
16634;SDS011;8431;52.458;9.998;2023-04-06T14:12:01;7.20;;;6.55;;
16634;SDS011;8431;52.458;9.998;2023-04-06T14:14:30;9.38;;;7.57;;
16634;SDS011;8431;52.458;9.998;2023-04-06T14:17:12;7.68;;;6.32;;
16634;SDS011;8431;52.458;9.998;2023-04-06T14:19:39;7.32;;;6.72;;
16634;SDS011;8431;52.458;9.998;2023-04-06T14:22:06;6.55;;;5.95;;
16634;SDS011;8431;52.458;9.998;2023-04-06T14:24:36;7.80;;;6.60;;
16634;SDS011;8431;52.458;9.998;2023-04-06T14:27:04;7.20;;;5.97;;
16634;SDS011;8431;52.458;9.998;2023-04-06T14:29:31;7.88;;;6.00;;
16634;SDS011;8431;52.458;9.998;2023-04-06T14:31:58;7.53;;;6.68;;
16634;SDS011;8431;52.458;9.998;2023-04-06T14:34:25;9.05;;;6.65;;
16634;SDS011;8431;52.458;9.998;2023-04-06T14:36:52;6.38;;;5.78;;
16634;SDS011;8431;52.458;9.998;2023-04-06T14:39:20;6.68;;;6.13;;
16634;SDS011;8431;52.458;9.998;2023-04-06T14:41:47;8.57;;;6.50;;
16634;SDS011;8431;52.458;9.998;2023-04-06T14:44:15;6.50;;;5.90;;
16634;SDS011;8431;52.458;9.998;2023-04-06T14:46:42;5.88;;;5.38;;
16634;SDS011;8431;52.458;9.998;2023-04-06T14:49:14;7.25;;;5.90;;
16634;SDS011;8431;52.458;9.998;2023-04-06T14:51:41;7.70;;;6.15;;
16634;SDS011;8431;52.458;9.998;2023-04-06T14:54:08;6.45;;;5.88;;
16634;SDS011;8431;52.458;9.998;2023-04-06T14:56:35;6.28;;;5.78;;
16634;SDS011;8431;52.458;9.998;2023-04-06T14:59:03;6.50;;;5.90;;
16634;SDS011;8431;52.458;9.998;2023-04-06T15:01:34;7.35;;;6.75;;
16634;SDS011;8431;52.458;9.998;2023-04-06T15:04:02;7.13;;;6.43;;
16634;SDS011;8431;52.458;9.998;2023-04-06T15:06:29;6.95;;;6.20;;
16634;SDS011;8431;52.458;9.998;2023-04-06T15:08:56;7.35;;;6.47;;
16634;SDS011;8431;52.458;9.998;2023-04-06T15:11:24;6.50;;;5.90;;
16634;SDS011;8431;52.458;9.998;2023-04-06T15:13:51;6.57;;;5.97;;
16634;SDS011;8431;52.458;9.998;2023-04-06T15:16:18;6.63;;;6.03;;
16634;SDS011;8431;52.458;9.998;2023-04-06T15:18:46;6.80;;;6.15;;
16634;SDS011;8431;52.458;9.998;2023-04-06T15:21:13;6.30;;;5.70;;
16634;SDS011;8431;52.458;9.998;2023-04-06T15:23:40;5.80;;;5.30;;
16634;SDS011;8431;52.458;9.998;2023-04-06T15:26:07;6.03;;;5.25;;
16634;SDS011;8431;52.458;9.998;2023-04-06T15:28:34;5.57;;;5.07;;
16634;SDS011;8431;52.458;9.998;2023-04-06T15:31:01;9.48;;;6.22;;
16634;SDS011;8431;52.458;9.998;2023-04-06T15:33:31;7.57;;;6.80;;
16634;SDS011;8431;52.458;9.998;2023-04-06T15:35:59;8.20;;;6.90;;
16634;SDS011;8431;52.458;9.998;2023-04-06T15:38:32;7.13;;;6.43;;
16634;SDS011;8431;52.458;9.998;2023-04-06T15:40:59;7.53;;;6.82;;
16634;SDS011;8431;52.458;9.998;2023-04-06T15:43:27;8.00;;;7.20;;
16634;SDS011;8431;52.458;9.998;2023-04-06T15:45:54;7.15;;;6.13;;
16634;SDS011;8431;52.458;9.998;2023-04-06T15:48:22;8.18;;;6.40;;
16634;SDS011;8431;52.458;9.998;2023-04-06T15:50:49;7.45;;;6.60;;
16634;SDS011;8431;52.458;9.998;2023-04-06T15:53:18;7.32;;;6.57;;
16634;SDS011;8431;52.458;9.998;2023-04-06T15:55:45;8.30;;;6.78;;
16634;SDS011;8431;52.458;9.998;2023-04-06T15:58:12;8.57;;;6.30;;
16634;SDS011;8431;52.458;9.998;2023-04-06T16:00:39;7.38;;;6.55;;
16634;SDS011;8431;52.458;9.998;2023-04-06T16:03:06;7.35;;;6.68;;
16634;SDS011;8431;52.458;9.998;2023-04-06T16:05:33;8.93;;;6.70;;
16634;SDS011;8431;52.458;9.998;2023-04-06T16:08:00;6.82;;;6.18;;
16634;SDS011;8431;52.458;9.998;2023-04-06T16:10:28;7.25;;;6.57;;
16634;SDS011;8431;52.458;9.998;2023-04-06T16:12:57;9.55;;;6.78;;
16634;SDS011;8431;52.458;9.998;2023-04-06T16:15:24;6.57;;;5.82;;
16634;SDS011;8431;52.458;9.998;2023-04-06T16:17:51;8.50;;;6.70;;
16634;SDS011;8431;52.458;9.998;2023-04-06T16:20:18;11.35;;;6.70;;
16634;SDS011;8431;52.458;9.998;2023-04-06T16:22:45;7.68;;;6.72;;
16634;SDS011;8431;52.458;9.998;2023-04-06T16:25:15;8.55;;;6.47;;
16634;SDS011;8431;52.458;9.998;2023-04-06T16:27:44;7.10;;;6.40;;
16634;SDS011;8431;52.458;9.998;2023-04-06T16:30:11;7.38;;;6.25;;
16634;SDS011;8431;52.458;9.998;2023-04-06T16:32:38;8.15;;;6.88;;
16634;SDS011;8431;52.458;9.998;2023-04-06T16:35:05;8.95;;;6.80;;
16634;SDS011;8431;52.458;9.998;2023-04-06T16:37:32;7.72;;;6.53;;
16634;SDS011;8431;52.458;9.998;2023-04-06T16:40:00;7.15;;;6.00;;
16634;SDS011;8431;52.458;9.998;2023-04-06T16:42:27;7.63;;;6.55;;
16634;SDS011;8431;52.458;9.998;2023-04-06T16:44:55;6.88;;;6.22;;
16634;SDS011;8431;52.458;9.998;2023-04-06T16:47:22;6.40;;;5.80;;
16634;SDS011;8431;52.458;9.998;2023-04-06T16:49:50;7.45;;;6.30;;
16634;SDS011;8431;52.458;9.998;2023-04-06T16:52:18;6.72;;;6.13;;
16634;SDS011;8431;52.458;9.998;2023-04-06T16:57:19;6.68;;;5.97;;
16634;SDS011;8431;52.458;9.998;2023-04-06T16:59:48;7.38;;;6.68;;
16634;SDS011;8431;52.458;9.998;2023-04-06T17:02:17;9.25;;;6.50;;
16634;SDS011;8431;52.458;9.998;2023-04-06T17:04:45;7.63;;;6.38;;
16634;SDS011;8431;52.458;9.998;2023-04-06T17:07:12;7.65;;;6.88;;
16634;SDS011;8431;52.458;9.998;2023-04-06T17:09:39;7.55;;;6.85;;
16634;SDS011;8431;52.458;9.998;2023-04-06T17:12:06;8.40;;;6.47;;
16634;SDS011;8431;52.458;9.998;2023-04-06T17:14:34;7.65;;;6.10;;
16634;SDS011;8431;52.458;9.998;2023-04-06T17:17:01;7.10;;;6.40;;
16634;SDS011;8431;52.458;9.998;2023-04-06T17:19:29;7.03;;;6.32;;
16634;SDS011;8431;52.458;9.998;2023-04-06T17:21:56;7.35;;;6.32;;
16634;SDS011;8431;52.458;9.998;2023-04-06T17:24:23;7.60;;;6.15;;
16634;SDS011;8431;52.458;9.998;2023-04-06T17:26:51;9.10;;;6.80;;
16634;SDS011;8431;52.458;9.998;2023-04-06T17:29:18;10.70;;;7.07;;
16634;SDS011;8431;52.458;9.998;2023-04-06T17:31:45;7.10;;;6.40;;
16634;SDS011;8431;52.458;9.998;2023-04-06T17:34:12;7.18;;;6.35;;
16634;SDS011;8431;52.458;9.998;2023-04-06T17:36:40;7.50;;;6.75;;
16634;SDS011;8431;52.458;9.998;2023-04-06T17:39:07;6.72;;;6.03;;
16634;SDS011;8431;52.458;9.998;2023-04-06T17:41:35;8.88;;;6.45;;
16634;SDS011;8431;52.458;9.998;2023-04-06T17:44:03;6.90;;;6.30;;
16634;SDS011;8431;52.458;9.998;2023-04-06T17:46:30;7.88;;;6.50;;
16634;SDS011;8431;52.458;9.998;2023-04-06T17:48:57;7.18;;;6.45;;
16634;SDS011;8431;52.458;9.998;2023-04-06T17:51:24;6.43;;;5.80;;
16634;SDS011;8431;52.458;9.998;2023-04-06T17:53:52;8.25;;;6.25;;
16634;SDS011;8431;52.458;9.998;2023-04-06T17:56:19;7.32;;;6.15;;
16634;SDS011;8431;52.458;9.998;2023-04-06T17:58:47;6.38;;;5.68;;
16634;SDS011;8431;52.458;9.998;2023-04-06T18:01:14;6.22;;;5.30;;
16634;SDS011;8431;52.458;9.998;2023-04-06T18:03:43;8.68;;;6.03;;
16634;SDS011;8431;52.458;9.998;2023-04-06T18:06:11;6.28;;;5.60;;
16634;SDS011;8431;52.458;9.998;2023-04-06T18:08:39;6.65;;;5.78;;
16634;SDS011;8431;52.458;9.998;2023-04-06T18:11:09;7.30;;;5.88;;
16634;SDS011;8431;52.458;9.998;2023-04-06T18:13:40;9.02;;;5.85;;
16634;SDS011;8431;52.458;9.998;2023-04-06T18:16:07;7.75;;;5.68;;
16634;SDS011;8431;52.458;9.998;2023-04-06T18:18:34;6.65;;;4.97;;
16634;SDS011;8431;52.458;9.998;2023-04-06T18:21:03;8.35;;;5.82;;
16634;SDS011;8431;52.458;9.998;2023-04-06T18:23:31;7.00;;;5.60;;
16634;SDS011;8431;52.458;9.998;2023-04-06T18:25:58;8.73;;;5.88;;
16634;SDS011;8431;52.458;9.998;2023-04-06T18:28:27;10.00;;;6.47;;
16634;SDS011;8431;52.458;9.998;2023-04-06T18:30:56;7.53;;;5.93;;
16634;SDS011;8431;52.458;9.998;2023-04-06T18:33:23;7.00;;;5.13;;
16634;SDS011;8431;52.458;9.998;2023-04-06T18:35:51;8.70;;;5.60;;
16634;SDS011;8431;52.458;9.998;2023-04-06T18:38:20;7.18;;;5.60;;
16634;SDS011;8431;52.458;9.998;2023-04-06T18:40:48;6.45;;;5.82;;
16634;SDS011;8431;52.458;9.998;2023-04-06T18:43:15;6.03;;;5.43;;
16634;SDS011;8431;52.458;9.998;2023-04-06T18:45:44;6.15;;;5.57;;
16634;SDS011;8431;52.458;9.998;2023-04-06T18:48:10;6.47;;;5.38;;
16634;SDS011;8431;52.458;9.998;2023-04-06T18:50:38;7.03;;;5.70;;
16634;SDS011;8431;52.458;9.998;2023-04-06T18:53:07;8.63;;;6.43;;
16634;SDS011;8431;52.458;9.998;2023-04-06T18:55:34;7.80;;;5.80;;
16634;SDS011;8431;52.458;9.998;2023-04-06T18:58:02;6.43;;;5.78;;
16634;SDS011;8431;52.458;9.998;2023-04-06T19:00:29;7.22;;;5.63;;
16634;SDS011;8431;52.458;9.998;2023-04-06T19:02:57;7.47;;;5.40;;
16634;SDS011;8431;52.458;9.998;2023-04-06T19:05:24;8.25;;;5.35;;
16634;SDS011;8431;52.458;9.998;2023-04-06T19:07:51;6.15;;;5.47;;
16634;SDS011;8431;52.458;9.998;2023-04-06T19:10:18;5.95;;;5.40;;
16634;SDS011;8431;52.458;9.998;2023-04-06T19:12:45;8.77;;;5.72;;
16634;SDS011;8431;52.458;9.998;2023-04-06T19:15:13;6.97;;;6.25;;
16634;SDS011;8431;52.458;9.998;2023-04-06T19:17:40;8.50;;;5.70;;
16634;SDS011;8431;52.458;9.998;2023-04-06T19:20:09;9.20;;;6.07;;
16634;SDS011;8431;52.458;9.998;2023-04-06T19:22:36;7.25;;;6.47;;
16634;SDS011;8431;52.458;9.998;2023-04-06T19:25:04;6.88;;;5.15;;
16634;SDS011;8431;52.458;9.998;2023-04-06T19:27:36;8.43;;;5.65;;
16634;SDS011;8431;52.458;9.998;2023-04-06T19:30:03;8.93;;;5.95;;
16634;SDS011;8431;52.458;9.998;2023-04-06T19:32:34;9.43;;;6.95;;
16634;SDS011;8431;52.458;9.998;2023-04-06T19:35:02;7.47;;;6.22;;
16634;SDS011;8431;52.458;9.998;2023-04-06T19:37:32;9.88;;;6.78;;
16634;SDS011;8431;52.458;9.998;2023-04-06T19:40:00;9.02;;;6.45;;
16634;SDS011;8431;52.458;9.998;2023-04-06T19:42:27;7.10;;;6.38;;
16634;SDS011;8431;52.458;9.998;2023-04-06T19:44:54;6.72;;;5.70;;
16634;SDS011;8431;52.458;9.998;2023-04-06T19:47:21;9.57;;;7.40;;
16634;SDS011;8431;52.458;9.998;2023-04-06T19:49:48;7.90;;;6.53;;
16634;SDS011;8431;52.458;9.998;2023-04-06T19:52:15;12.00;;;6.72;;
16634;SDS011;8431;52.458;9.998;2023-04-06T19:54:45;9.00;;;6.95;;
16634;SDS011;8431;52.458;9.998;2023-04-06T19:57:12;9.98;;;7.38;;
16634;SDS011;8431;52.458;9.998;2023-04-06T19:59:39;9.00;;;7.03;;
16634;SDS011;8431;52.458;9.998;2023-04-06T20:02:06;8.02;;;7.05;;
16634;SDS011;8431;52.458;9.998;2023-04-06T20:04:33;8.52;;;7.03;;
16634;SDS011;8431;52.458;9.998;2023-04-06T20:07:01;7.82;;;7.03;;
16634;SDS011;8431;52.458;9.998;2023-04-06T20:09:28;10.57;;;7.25;;
16634;SDS011;8431;52.458;9.998;2023-04-06T20:11:56;8.88;;;7.00;;
16634;SDS011;8431;52.458;9.998;2023-04-06T20:14:24;8.52;;;7.05;;
16634;SDS011;8431;52.458;9.998;2023-04-06T20:16:51;7.50;;;6.75;;
16634;SDS011;8431;52.458;9.998;2023-04-06T20:19:20;8.80;;;7.28;;
16634;SDS011;8431;52.458;9.998;2023-04-06T20:22:00;9.05;;;6.45;;
16634;SDS011;8431;52.458;9.998;2023-04-06T20:24:28;12.32;;;7.70;;
16634;SDS011;8431;52.458;9.998;2023-04-06T20:26:56;7.88;;;6.80;;
16634;SDS011;8431;52.458;9.998;2023-04-06T20:29:24;7.70;;;6.90;;
16634;SDS011;8431;52.458;9.998;2023-04-06T20:31:52;7.95;;;7.15;;
16634;SDS011;8431;52.458;9.998;2023-04-06T20:34:23;9.40;;;7.32;;
16634;SDS011;8431;52.458;9.998;2023-04-06T20:36:52;9.85;;;6.82;;
16634;SDS011;8431;52.458;9.998;2023-04-06T20:39:20;8.40;;;7.53;;
16634;SDS011;8431;52.458;9.998;2023-04-06T20:41:49;7.68;;;6.90;;
16634;SDS011;8431;52.458;9.998;2023-04-06T20:44:18;7.35;;;6.57;;
16634;SDS011;8431;52.458;9.998;2023-04-06T20:46:45;7.38;;;6.28;;
16634;SDS011;8431;52.458;9.998;2023-04-06T20:49:13;8.80;;;6.82;;
16634;SDS011;8431;52.458;9.998;2023-04-06T20:51:41;8.52;;;7.00;;
16634;SDS011;8431;52.458;9.998;2023-04-06T20:54:09;8.15;;;7.35;;
16634;SDS011;8431;52.458;9.998;2023-04-06T20:56:36;9.25;;;7.40;;
16634;SDS011;8431;52.458;9.998;2023-04-06T21:05:07;8.73;;;7.30;;
16634;SDS011;8431;52.458;9.998;2023-04-06T21:07:35;9.27;;;7.45;;
16634;SDS011;8431;52.458;9.998;2023-04-06T21:10:02;7.78;;;6.65;;
16634;SDS011;8431;52.458;9.998;2023-04-06T21:12:30;9.10;;;7.93;;
16634;SDS011;8431;52.458;9.998;2023-04-06T21:14:57;8.48;;;7.63;;
16634;SDS011;8431;52.458;9.998;2023-04-06T21:17:25;9.93;;;7.05;;